Terminal Aerodrome Forecast
Issued by NWS

Home | Current Version | Previous Version | Graphics & Text | Print | Product List | Glossary On
Versions: 1 2 3 4 5 6 7 8 9 10 11 12 13 14 15 16 17 18
000
FTUS43 KUNR 281124
TAFGCC
TAF
KGCC 281124Z 2812/2912 VRB05KT P6SM BKN080
     FM281600 35009KT P6SM -SHRA OVC050
     FM282100 34014KT 5SM -TSRA OVC035CB
     FM290600 32009KT 2SM -RA BR OVC008=

USA.gov is the U.S. government's official web portal to all federal, state and local government web resources and services.